sensor_id;sensor_type;location;lat;lon;timestamp;pressure;altitude;pressure_sealevel;temperature;humidity
10482;BME280;5288;42.334;23.876;2024-01-27T00:00:33;56389.34;;;-140.56;59.10
10482;BME280;5288;42.334;23.876;2024-01-27T00:03:00;56413.06;;;-140.56;59.39
10482;BME280;5288;42.334;23.876;2024-01-27T00:05:28;56413.06;;;-140.56;63.71
10482;BME280;5288;42.334;23.876;2024-01-27T00:07:55;56419.00;;;-140.56;65.61
10482;BME280;5288;42.334;23.876;2024-01-27T00:10:23;56407.16;;;-140.56;67.07
10482;BME280;5288;42.334;23.876;2024-01-27T00:12:51;56428.88;;;-140.56;68.96
10482;BME280;5288;42.334;23.876;2024-01-27T00:15:19;56415.06;;;-140.56;69.99
10482;BME280;5288;42.334;23.876;2024-01-27T00:17:46;56432.84;;;-140.56;70.93
10482;BME280;5288;42.334;23.876;2024-01-27T00:20:13;56424.94;;;-140.56;71.23
10482;BME280;5288;42.334;23.876;2024-01-27T00:22:43;56411.09;;;-140.56;71.30
10482;BME280;5288;42.334;23.876;2024-01-27T00:25:14;56411.09;;;-140.56;73.03
10482;BME280;5288;42.334;23.876;2024-01-27T00:27:41;56417.03;;;-140.56;73.72
10482;BME280;5288;42.334;23.876;2024-01-27T00:30:13;56438.78;;;-140.56;75.05
10482;BME280;5288;42.334;23.876;2024-01-27T00:32:40;56407.16;;;-140.56;76.13
10482;BME280;5288;42.334;23.876;2024-01-27T00:35:17;56430.88;;;-140.56;77.70
10482;BME280;5288;42.334;23.876;2024-01-27T00:37:45;56432.84;;;-140.56;78.15
10482;BME280;5288;42.334;23.876;2024-01-27T00:40:12;56446.69;;;-140.56;80.09
10482;BME280;5288;42.334;23.876;2024-01-27T00:42:44;56440.75;;;-140.56;80.83
10482;BME280;5288;42.334;23.876;2024-01-27T00:45:13;56436.78;;;-140.56;81.37
10482;BME280;5288;42.334;23.876;2024-01-27T00:47:46;56440.75;;;-140.56;81.93
10482;BME280;5288;42.334;23.876;2024-01-27T00:50:18;56415.06;;;-140.56;82.72
10482;BME280;5288;42.334;23.876;2024-01-27T00:52:46;56434.81;;;-140.56;84.13
10482;BME280;5288;42.334;23.876;2024-01-27T00:55:17;56428.88;;;-140.56;85.09
10482;BME280;5288;42.334;23.876;2024-01-27T00:57:48;56417.03;;;-140.56;86.45
10482;BME280;5288;42.334;23.876;2024-01-27T01:00:21;56430.88;;;-140.56;87.23
10482;BME280;5288;42.334;23.876;2024-01-27T01:02:51;56415.06;;;-140.56;88.21
10482;BME280;5288;42.334;23.876;2024-01-27T01:05:18;56450.63;;;-140.56;88.73
10482;BME280;5288;42.334;23.876;2024-01-27T01:07:45;56422.97;;;-140.56;88.78
10482;BME280;5288;42.334;23.876;2024-01-27T01:10:13;56438.78;;;-140.56;89.38
10482;BME280;5288;42.334;23.876;2024-01-27T01:12:40;56405.16;;;-140.56;90.02
10482;BME280;5288;42.334;23.876;2024-01-27T01:15:08;56426.91;;;-140.56;91.30
10482;BME280;5288;42.334;23.876;2024-01-27T01:17:37;56426.91;;;-140.56;90.78
10482;BME280;5288;42.334;23.876;2024-01-27T01:20:05;56426.91;;;-140.56;90.22
10482;BME280;5288;42.334;23.876;2024-01-27T01:22:33;56428.88;;;-140.56;90.45
10482;BME280;5288;42.334;23.876;2024-01-27T01:25:00;56436.78;;;-140.56;90.35
10482;BME280;5288;42.334;23.876;2024-01-27T01:27:26;56446.69;;;-140.56;89.42
10482;BME280;5288;42.334;23.876;2024-01-27T01:29:54;56430.88;;;-140.56;89.42
10482;BME280;5288;42.334;23.876;2024-01-27T01:32:21;56438.78;;;-140.56;88.76
10482;BME280;5288;42.334;23.876;2024-01-27T01:34:49;56432.84;;;-140.56;88.96
10482;BME280;5288;42.334;23.876;2024-01-27T01:37:16;56436.78;;;-140.56;89.11
10482;BME280;5288;42.334;23.876;2024-01-27T01:39:43;56440.75;;;-140.56;89.54
10482;BME280;5288;42.334;23.876;2024-01-27T01:42:10;56476.31;;;-140.56;89.03
10482;BME280;5288;42.334;23.876;2024-01-27T01:44:38;56428.88;;;-140.56;89.15
10482;BME280;5288;42.334;23.876;2024-01-27T01:47:05;56401.22;;;-140.56;89.05
10482;BME280;5288;42.334;23.876;2024-01-27T01:49:33;56446.69;;;-140.56;88.40
10482;BME280;5288;42.334;23.876;2024-01-27T01:52:03;56448.66;;;-140.56;86.98
10482;BME280;5288;42.334;23.876;2024-01-27T01:54:30;56426.91;;;-140.56;85.88
10482;BME280;5288;42.334;23.876;2024-01-27T01:56:58;56424.94;;;-140.56;82.86
10482;BME280;5288;42.334;23.876;2024-01-27T01:59:25;56420.97;;;-140.56;77.52
10482;BME280;5288;42.334;23.876;2024-01-27T02:01:53;56422.97;;;-140.56;76.23
10482;BME280;5288;42.334;23.876;2024-01-27T02:04:20;56415.06;;;-140.56;75.05
10482;BME280;5288;42.334;23.876;2024-01-27T02:06:47;56403.19;;;-140.56;77.98
10482;BME280;5288;42.334;23.876;2024-01-27T02:09:16;56430.88;;;-140.56;79.24
10482;BME280;5288;42.334;23.876;2024-01-27T02:11:43;56444.69;;;-140.56;80.07
10482;BME280;5288;42.334;23.876;2024-01-27T02:14:11;56426.91;;;-140.56;75.87
10482;BME280;5288;42.334;23.876;2024-01-27T02:16:38;56440.75;;;-140.56;76.04
10482;BME280;5288;42.334;23.876;2024-01-27T02:19:05;56444.69;;;-140.56;72.05
10482;BME280;5288;42.334;23.876;2024-01-27T02:21:33;56434.81;;;-140.56;70.26
10482;BME280;5288;42.334;23.876;2024-01-27T02:24:00;56417.03;;;-140.56;72.81
10482;BME280;5288;42.334;23.876;2024-01-27T02:26:29;56452.59;;;-140.56;73.33
10482;BME280;5288;42.334;23.876;2024-01-27T02:28:56;56415.06;;;-140.56;67.92
10482;BME280;5288;42.334;23.876;2024-01-27T02:31:23;56409.13;;;-140.56;63.98
10482;BME280;5288;42.334;23.876;2024-01-27T02:33:50;56385.41;;;-140.56;59.92
10482;BME280;5288;42.334;23.876;2024-01-27T02:36:18;56420.97;;;-140.56;59.67
10482;BME280;5288;42.334;23.876;2024-01-27T02:38:45;56411.09;;;-140.56;58.58
10482;BME280;5288;42.334;23.876;2024-01-27T02:41:12;56395.28;;;-140.56;59.95
10482;BME280;5288;42.334;23.876;2024-01-27T02:43:41;56393.31;;;-140.56;64.20
10482;BME280;5288;42.334;23.876;2024-01-27T02:46:11;56428.88;;;-140.56;65.34
10482;BME280;5288;42.334;23.876;2024-01-27T02:48:41;56420.97;;;-140.56;67.44
10482;BME280;5288;42.334;23.876;2024-01-27T02:51:08;56397.25;;;-140.56;69.08
10482;BME280;5288;42.334;23.876;2024-01-27T02:53:35;56403.19;;;-140.56;69.56
10482;BME280;5288;42.334;23.876;2024-01-27T02:56:06;56413.06;;;-140.56;69.34
10482;BME280;5288;42.334;23.876;2024-01-27T02:58:34;56415.06;;;-140.56;66.63
10482;BME280;5288;42.334;23.876;2024-01-27T03:01:03;56415.06;;;-140.56;67.31
10482;BME280;5288;42.334;23.876;2024-01-27T03:03:30;56407.16;;;-140.56;65.15
10482;BME280;5288;42.334;23.876;2024-01-27T03:06:01;56385.41;;;-140.56;66.17
10482;BME280;5288;42.334;23.876;2024-01-27T03:08:28;56407.16;;;-140.56;67.57
10482;BME280;5288;42.334;23.876;2024-01-27T03:10:55;56415.06;;;-140.56;66.85
10482;BME280;5288;42.334;23.876;2024-01-27T03:13:23;56428.88;;;-140.56;66.68
10482;BME280;5288;42.334;23.876;2024-01-27T03:15:50;56405.16;;;-140.56;67.63
10482;BME280;5288;42.334;23.876;2024-01-27T03:18:19;56426.91;;;-140.56;66.40
10482;BME280;5288;42.334;23.876;2024-01-27T03:20:46;56403.19;;;-140.56;67.48
10482;BME280;5288;42.334;23.876;2024-01-27T03:23:14;56401.22;;;-140.56;68.48
10482;BME280;5288;42.334;23.876;2024-01-27T03:25:41;56411.09;;;-140.56;70.33
10482;BME280;5288;42.334;23.876;2024-01-27T03:28:13;56462.47;;;-140.56;71.02
10482;BME280;5288;42.334;23.876;2024-01-27T03:30:42;56432.84;;;-140.56;71.62
10482;BME280;5288;42.334;23.876;2024-01-27T03:33:10;56430.88;;;-140.56;71.26
10482;BME280;5288;42.334;23.876;2024-01-27T03:35:40;56415.06;;;-140.56;71.85
10482;BME280;5288;42.334;23.876;2024-01-27T03:38:10;56440.75;;;-140.56;72.74
10482;BME280;5288;42.334;23.876;2024-01-27T03:40:56;56417.03;;;-140.56;73.58
10482;BME280;5288;42.334;23.876;2024-01-27T03:43:40;56419.00;;;-140.56;74.13
10482;BME280;5288;42.334;23.876;2024-01-27T03:46:18;56411.09;;;-140.56;74.37
10482;BME280;5288;42.334;23.876;2024-01-27T03:48:45;56413.06;;;-140.56;74.68
10482;BME280;5288;42.334;23.876;2024-01-27T03:51:30;56389.34;;;-140.56;73.96
10482;BME280;5288;42.334;23.876;2024-01-27T03:54:17;56385.41;;;-140.56;73.73
10482;BME280;5288;42.334;23.876;2024-01-27T03:57:07;56420.97;;;-140.56;73.05
10482;BME280;5288;42.334;23.876;2024-01-27T03:59:34;56452.59;;;-140.56;73.27
10482;BME280;5288;42.334;23.876;2024-01-27T04:02:21;56415.06;;;-140.56;73.15
10482;BME280;5288;42.334;23.876;2024-01-27T04:04:50;56417.03;;;-140.56;73.20
10482;BME280;5288;42.334;23.876;2024-01-27T04:07:29;56442.72;;;-140.56;74.18
10482;BME280;5288;42.334;23.876;2024-01-27T04:09:57;56405.16;;;-140.56;75.53
10482;BME280;5288;42.334;23.876;2024-01-27T04:12:42;56450.63;;;-140.56;76.43
10482;BME280;5288;42.334;23.876;2024-01-27T04:15:16;56426.91;;;-140.56;76.80
10482;BME280;5288;42.334;23.876;2024-01-27T04:17:52;56383.44;;;-140.56;77.11
10482;BME280;5288;42.334;23.876;2024-01-27T04:20:20;56413.06;;;-140.56;77.09
10482;BME280;5288;42.334;23.876;2024-01-27T04:22:56;56417.03;;;-140.56;77.40
10482;BME280;5288;42.334;23.876;2024-01-27T04:25:23;56419.00;;;-140.56;78.52
10482;BME280;5288;42.334;23.876;2024-01-27T04:27:50;56379.47;;;-140.56;79.74
10482;BME280;5288;42.334;23.876;2024-01-27T04:30:18;56415.06;;;-140.56;79.22
10482;BME280;5288;42.334;23.876;2024-01-27T04:32:46;56411.09;;;-140.56;79.09
10482;BME280;5288;42.334;23.876;2024-01-27T04:35:22;56424.94;;;-140.56;79.45
10482;BME280;5288;42.334;23.876;2024-01-27T04:37:49;56426.91;;;-140.56;79.43
10482;BME280;5288;42.334;23.876;2024-01-27T04:40:20;56385.41;;;-140.56;78.93
10482;BME280;5288;42.334;23.876;2024-01-27T04:42:47;56413.06;;;-140.56;78.01
10482;BME280;5288;42.334;23.876;2024-01-27T04:45:24;56407.16;;;-140.56;77.17
10482;BME280;5288;42.334;23.876;2024-01-27T04:47:51;56405.16;;;-140.56;77.02
10482;BME280;5288;42.334;23.876;2024-01-27T04:50:20;56444.69;;;-140.56;76.19
10482;BME280;5288;42.334;23.876;2024-01-27T04:52:53;56428.88;;;-140.56;75.96
10482;BME280;5288;42.334;23.876;2024-01-27T04:55:23;56415.06;;;-140.56;75.18
10482;BME280;5288;42.334;23.876;2024-01-27T04:57:53;56411.09;;;-140.56;74.56
10482;BME280;5288;42.334;23.876;2024-01-27T05:00:23;56419.00;;;-140.56;74.23
10482;BME280;5288;42.334;23.876;2024-01-27T05:02:53;56357.75;;;-140.56;73.77
10482;BME280;5288;42.334;23.876;2024-01-27T05:05:23;56381.44;;;-140.56;73.40
10482;BME280;5288;42.334;23.876;2024-01-27T05:07:50;56397.25;;;-140.56;73.62
10482;BME280;5288;42.334;23.876;2024-01-27T05:10:18;56395.28;;;-140.56;74.25
10482;BME280;5288;42.334;23.876;2024-01-27T05:12:51;56417.03;;;-140.56;74.49
10482;BME280;5288;42.334;23.876;2024-01-27T05:15:18;56413.06;;;-140.56;74.77
10482;BME280;5288;42.334;23.876;2024-01-27T05:17:46;56411.09;;;-140.56;76.04
10482;BME280;5288;42.334;23.876;2024-01-27T05:20:13;56415.06;;;-140.56;77.64
10482;BME280;5288;42.334;23.876;2024-01-27T05:22:41;56387.38;;;-140.56;78.15
10482;BME280;5288;42.334;23.876;2024-01-27T05:25:11;56415.06;;;-140.56;79.45
10482;BME280;5288;42.334;23.876;2024-01-27T05:27:39;56428.88;;;-140.56;80.85
10482;BME280;5288;42.334;23.876;2024-01-27T05:30:09;56413.06;;;-140.56;82.45
10482;BME280;5288;42.334;23.876;2024-01-27T05:32:37;56424.94;;;-140.56;83.54
10482;BME280;5288;42.334;23.876;2024-01-27T05:35:05;56391.34;;;-140.56;84.03
10482;BME280;5288;42.334;23.876;2024-01-27T05:37:32;56397.25;;;-140.56;84.93
10482;BME280;5288;42.334;23.876;2024-01-27T05:40:06;56405.16;;;-140.56;85.70
10482;BME280;5288;42.334;23.876;2024-01-27T05:42:33;56401.22;;;-140.56;86.49
10482;BME280;5288;42.334;23.876;2024-01-27T05:45:01;56422.97;;;-140.56;87.27
10482;BME280;5288;42.334;23.876;2024-01-27T05:47:29;56415.06;;;-140.56;88.32
10482;BME280;5288;42.334;23.876;2024-01-27T05:49:57;56417.03;;;-140.56;89.93
10482;BME280;5288;42.334;23.876;2024-01-27T05:52:24;56409.13;;;-140.56;91.23
10482;BME280;5288;42.334;23.876;2024-01-27T05:54:52;56397.25;;;-140.56;93.69
10482;BME280;5288;42.334;23.876;2024-01-27T05:57:19;56411.09;;;-140.56;95.82
10482;BME280;5288;42.334;23.876;2024-01-27T05:59:46;56422.97;;;-140.56;100.00
10482;BME280;5288;42.334;23.876;2024-01-27T06:02:13;56395.28;;;-140.56;100.00
10482;BME280;5288;42.334;23.876;2024-01-27T06:04:44;56426.91;;;-140.56;100.00
10482;BME280;5288;42.334;23.876;2024-01-27T06:07:12;56395.28;;;-140.56;100.00
10482;BME280;5288;42.334;23.876;2024-01-27T06:09:39;56399.25;;;-140.56;100.00
10482;BME280;5288;42.334;23.876;2024-01-27T06:12:06;56422.97;;;-140.56;100.00
10482;BME280;5288;42.334;23.876;2024-01-27T06:14:34;56420.97;;;-140.56;100.00
10482;BME280;5288;42.334;23.876;2024-01-27T06:17:02;56417.03;;;-140.56;100.00
10482;BME280;5288;42.334;23.876;2024-01-27T06:19:30;56383.44;;;-140.56;100.00
10482;BME280;5288;42.334;23.876;2024-01-27T06:21:58;56434.81;;;-140.56;100.00
10482;BME280;5288;42.334;23.876;2024-01-27T06:24:26;56424.94;;;-140.56;100.00
10482;BME280;5288;42.334;23.876;2024-01-27T06:26:53;56397.25;;;-140.56;100.00
10482;BME280;5288;42.334;23.876;2024-01-27T06:29:20;56395.28;;;-140.56;100.00
10482;BME280;5288;42.334;23.876;2024-01-27T06:31:48;56432.84;;;-140.56;100.00
10482;BME280;5288;42.334;23.876;2024-01-27T06:34:16;56403.19;;;-140.56;100.00
10482;BME280;5288;42.334;23.876;2024-01-27T06:36:43;56409.13;;;-140.56;100.00
10482;BME280;5288;42.334;23.876;2024-01-27T06:39:12;56413.06;;;-140.56;100.00
10482;BME280;5288;42.334;23.876;2024-01-27T06:41:39;56411.09;;;-140.56;100.00
10482;BME280;5288;42.334;23.876;2024-01-27T06:44:07;56424.94;;;-140.56;100.00
10482;BME280;5288;42.334;23.876;2024-01-27T06:46:34;56432.84;;;-140.56;100.00
10482;BME280;5288;42.334;23.876;2024-01-27T06:49:01;56428.88;;;-140.56;100.00
10482;BME280;5288;42.334;23.876;2024-01-27T06:51:29;56428.88;;;-140.56;100.00
10482;BME280;5288;42.334;23.876;2024-01-27T06:53:56;56424.94;;;-140.56;100.00
10482;BME280;5288;42.334;23.876;2024-01-27T06:56:25;56391.34;;;-140.56;100.00
10482;BME280;5288;42.334;23.876;2024-01-27T06:58:52;56409.13;;;-140.56;100.00
10482;BME280;5288;42.334;23.876;2024-01-27T07:01:19;56409.13;;;-140.56;100.00
10482;BME280;5288;42.334;23.876;2024-01-27T07:03:46;56395.28;;;-140.56;100.00
10482;BME280;5288;42.334;23.876;2024-01-27T07:06:14;56417.03;;;-140.56;100.00
10482;BME280;5288;42.334;23.876;2024-01-27T07:08:41;56424.94;;;-140.56;100.00
10482;BME280;5288;42.334;23.876;2024-01-27T07:11:08;56397.25;;;-140.56;100.00
10482;BME280;5288;42.334;23.876;2024-01-27T07:13:37;56377.50;;;-140.56;100.00
10482;BME280;5288;42.334;23.876;2024-01-27T07:16:05;56407.16;;;-140.56;100.00
10482;BME280;5288;42.334;23.876;2024-01-27T07:18:32;56407.16;;;-140.56;100.00
10482;BME280;5288;42.334;23.876;2024-01-27T07:21:00;56448.66;;;-140.56;100.00
10482;BME280;5288;42.334;23.876;2024-01-27T07:23:27;56413.06;;;-140.56;100.00
10482;BME280;5288;42.334;23.876;2024-01-27T07:25:55;56438.78;;;-140.56;100.00
10482;BME280;5288;42.334;23.876;2024-01-27T07:28:22;56424.94;;;-140.56;100.00
10482;BME280;5288;42.334;23.876;2024-01-27T07:30:51;56375.53;;;-140.56;100.00
10482;BME280;5288;42.334;23.876;2024-01-27T07:33:18;56395.28;;;-140.56;100.00
10482;BME280;5288;42.334;23.876;2024-01-27T07:35:46;56405.16;;;-140.56;100.00
10482;BME280;5288;42.334;23.876;2024-01-27T07:38:13;56395.28;;;-140.56;100.00
10482;BME280;5288;42.334;23.876;2024-01-27T07:40:40;56369.59;;;-140.56;100.00
10482;BME280;5288;42.334;23.876;2024-01-27T07:43:08;56415.06;;;-140.56;100.00
10482;BME280;5288;42.334;23.876;2024-01-27T07:45:35;56419.00;;;-140.56;100.00
10482;BME280;5288;42.334;23.876;2024-01-27T07:48:04;56426.91;;;-140.56;100.00
10482;BME280;5288;42.334;23.876;2024-01-27T07:50:35;56405.16;;;-140.56;100.00
10482;BME280;5288;42.334;23.876;2024-01-27T07:53:02;56405.16;;;-140.56;100.00
10482;BME280;5288;42.334;23.876;2024-01-27T07:55:29;56387.38;;;-140.56;100.00
10482;BME280;5288;42.334;23.876;2024-01-27T07:57:57;56405.16;;;-140.56;100.00
10482;BME280;5288;42.334;23.876;2024-01-27T08:00:24;56399.25;;;-140.56;100.00
10482;BME280;5288;42.334;23.876;2024-01-27T08:02:51;56381.44;;;-140.56;100.00
10482;BME280;5288;42.334;23.876;2024-01-27T08:05:20;56371.56;;;-140.56;100.00
10482;BME280;5288;42.334;23.876;2024-01-27T08:07:47;56395.28;;;-140.56;100.00
10482;BME280;5288;42.334;23.876;2024-01-27T08:10:14;56359.72;;;-140.56;100.00
10482;BME280;5288;42.334;23.876;2024-01-27T08:12:41;56381.44;;;-140.56;100.00
10482;BME280;5288;42.334;23.876;2024-01-27T08:15:09;56403.19;;;-140.56;94.45
10482;BME280;5288;42.334;23.876;2024-01-27T08:17:37;56383.44;;;-140.56;84.99
10482;BME280;5288;42.334;23.876;2024-01-27T08:20:06;56375.53;;;-140.56;85.04
10482;BME280;5288;42.334;23.876;2024-01-27T08:22:35;56367.63;;;-140.56;79.58
10482;BME280;5288;42.334;23.876;2024-01-27T08:25:03;56397.25;;;-140.56;77.63
10482;BME280;5288;42.334;23.876;2024-01-27T08:27:34;56367.63;;;-140.56;69.91
10482;BME280;5288;42.334;23.876;2024-01-27T08:30:01;56399.25;;;-140.56;67.98
10482;BME280;5288;42.334;23.876;2024-01-27T08:32:28;56399.25;;;-140.56;67.05
10482;BME280;5288;42.334;23.876;2024-01-27T08:34:56;56393.31;;;-140.56;69.72
10482;BME280;5288;42.334;23.876;2024-01-27T08:37:23;56387.38;;;-140.56;68.30
10482;BME280;5288;42.334;23.876;2024-01-27T08:39:51;56371.56;;;-140.56;64.65
10482;BME280;5288;42.334;23.876;2024-01-27T08:42:19;56405.16;;;-140.56;65.75
10482;BME280;5288;42.334;23.876;2024-01-27T08:44:46;56401.22;;;-140.56;63.46
10482;BME280;5288;42.334;23.876;2024-01-27T08:47:14;56345.88;;;-140.56;63.23
10482;BME280;5288;42.334;23.876;2024-01-27T08:49:41;56357.75;;;-140.56;62.89
10482;BME280;5288;42.334;23.876;2024-01-27T08:52:08;56409.13;;;-140.56;59.08
10482;BME280;5288;42.334;23.876;2024-01-27T08:54:36;56389.34;;;-140.56;56.18
10482;BME280;5288;42.334;23.876;2024-01-27T08:57:04;56377.50;;;-140.56;56.54
10482;BME280;5288;42.334;23.876;2024-01-27T08:59:32;56381.44;;;-140.56;57.01
10482;BME280;5288;42.334;23.876;2024-01-27T09:02:00;56365.66;;;-140.56;59.58
10482;BME280;5288;42.334;23.876;2024-01-27T09:04:27;56413.06;;;-140.56;61.14
10482;BME280;5288;42.334;23.876;2024-01-27T09:06:54;56379.47;;;-140.56;61.85
10482;BME280;5288;42.334;23.876;2024-01-27T09:09:21;56389.34;;;-140.56;58.70
10482;BME280;5288;42.334;23.876;2024-01-27T09:11:49;56381.44;;;-140.56;66.12
10482;BME280;5288;42.334;23.876;2024-01-27T09:14:18;56389.34;;;-140.56;71.46
10482;BME280;5288;42.334;23.876;2024-01-27T09:16:45;56381.44;;;-140.56;72.76
10482;BME280;5288;42.334;23.876;2024-01-27T09:19:12;56349.84;;;-140.56;70.00
10482;BME280;5288;42.334;23.876;2024-01-27T09:21:40;56365.66;;;-140.56;66.27
10482;BME280;5288;42.334;23.876;2024-01-27T09:24:07;56349.84;;;-140.56;61.71
10482;BME280;5288;42.334;23.876;2024-01-27T09:26:34;56365.66;;;-140.56;61.09
10482;BME280;5288;42.334;23.876;2024-01-27T09:29:01;56377.50;;;-140.56;62.20
10482;BME280;5288;42.334;23.876;2024-01-27T09:31:30;56357.75;;;-140.56;63.82
10482;BME280;5288;42.334;23.876;2024-01-27T09:33:57;56337.97;;;-140.56;61.69
10482;BME280;5288;42.334;23.876;2024-01-27T09:36:25;56359.72;;;-140.56;59.01
10482;BME280;5288;42.334;23.876;2024-01-27T09:38:52;56351.81;;;-140.56;57.66
10482;BME280;5288;42.334;23.876;2024-01-27T09:41:20;56314.25;;;-140.56;54.55
10482;BME280;5288;42.334;23.876;2024-01-27T09:43:47;56336.00;;;-140.56;54.82
10482;BME280;5288;42.334;23.876;2024-01-27T09:46:16;56326.13;;;-140.56;55.60
10482;BME280;5288;42.334;23.876;2024-01-27T09:48:45;56343.91;;;-140.56;55.71
10482;BME280;5288;42.334;23.876;2024-01-27T09:51:12;56336.00;;;-140.56;53.42
10482;BME280;5288;42.334;23.876;2024-01-27T09:53:40;56324.13;;;-140.56;53.61
10482;BME280;5288;42.334;23.876;2024-01-27T09:56:07;56353.78;;;-140.56;51.98
10482;BME280;5288;42.334;23.876;2024-01-27T09:58:36;56339.94;;;-140.56;53.37
10482;BME280;5288;42.334;23.876;2024-01-27T10:01:04;56347.84;;;-140.56;52.79
10482;BME280;5288;42.334;23.876;2024-01-27T10:03:34;56341.94;;;-140.56;54.19
10482;BME280;5288;42.334;23.876;2024-01-27T10:06:05;56334.03;;;-140.56;53.88
10482;BME280;5288;42.334;23.876;2024-01-27T10:08:35;56330.06;;;-140.56;54.13
10482;BME280;5288;42.334;23.876;2024-01-27T10:11:06;56316.25;;;-140.56;53.75
10482;BME280;5288;42.334;23.876;2024-01-27T10:13:34;56359.72;;;-140.56;52.20
10482;BME280;5288;42.334;23.876;2024-01-27T10:16:02;56330.06;;;-140.56;52.60
10482;BME280;5288;42.334;23.876;2024-01-27T10:18:30;56357.75;;;-140.56;52.65
10482;BME280;5288;42.334;23.876;2024-01-27T10:20:58;56320.19;;;-140.56;52.79
10482;BME280;5288;42.334;23.876;2024-01-27T10:23:26;56351.81;;;-140.56;51.49
10482;BME280;5288;42.334;23.876;2024-01-27T10:25:54;56395.28;;;-140.56;53.31
10482;BME280;5288;42.334;23.876;2024-01-27T10:28:21;56353.78;;;-140.56;53.38
10482;BME280;5288;42.334;23.876;2024-01-27T10:30:52;56324.13;;;-140.56;53.67
10482;BME280;5288;42.334;23.876;2024-01-27T10:33:20;56339.94;;;-140.56;54.30
10482;BME280;5288;42.334;23.876;2024-01-27T10:35:57;56367.63;;;-140.56;55.16
10482;BME280;5288;42.334;23.876;2024-01-27T10:38:35;56377.50;;;-140.56;56.63
10482;BME280;5288;42.334;23.876;2024-01-27T10:41:09;56357.75;;;-140.56;58.03
10482;BME280;5288;42.334;23.876;2024-01-27T10:43:37;56324.13;;;-140.56;59.41
10482;BME280;5288;42.334;23.876;2024-01-27T10:46:06;56318.22;;;-140.56;60.12
10482;BME280;5288;42.334;23.876;2024-01-27T10:48:34;56375.53;;;-140.56;59.93
10482;BME280;5288;42.334;23.876;2024-01-27T10:51:08;56345.88;;;-140.56;59.70
10482;BME280;5288;42.334;23.876;2024-01-27T10:53:37;56381.44;;;-140.56;59.68
10482;BME280;5288;42.334;23.876;2024-01-27T10:56:05;56347.84;;;-140.56;58.78
10482;BME280;5288;42.334;23.876;2024-01-27T10:58:35;56341.94;;;-140.56;58.23
10482;BME280;5288;42.334;23.876;2024-01-27T11:01:08;56365.66;;;-140.56;58.93
10482;BME280;5288;42.334;23.876;2024-01-27T11:03:38;56391.34;;;-140.56;61.08
10482;BME280;5288;42.334;23.876;2024-01-27T11:06:07;56334.03;;;-140.56;58.81
10482;BME280;5288;42.334;23.876;2024-01-27T11:08:34;56351.81;;;-140.56;58.48
10482;BME280;5288;42.334;23.876;2024-01-27T11:11:04;56367.63;;;-140.56;58.10
10482;BME280;5288;42.334;23.876;2024-01-27T11:13:33;56343.91;;;-140.56;58.69
10482;BME280;5288;42.334;23.876;2024-01-27T11:16:01;56336.00;;;-140.56;59.27
10482;BME280;5288;42.334;23.876;2024-01-27T11:18:29;56330.06;;;-140.56;60.33
10482;BME280;5288;42.334;23.876;2024-01-27T11:20:58;56337.97;;;-140.56;63.07
10482;BME280;5288;42.334;23.876;2024-01-27T11:23:32;56318.22;;;-140.56;63.36
10482;BME280;5288;42.334;23.876;2024-01-27T11:26:04;56357.75;;;-140.56;64.91
10482;BME280;5288;42.334;23.876;2024-01-27T11:28:32;56381.44;;;-140.56;66.46
10482;BME280;5288;42.334;23.876;2024-01-27T11:31:03;56379.47;;;-140.56;66.53
10482;BME280;5288;42.334;23.876;2024-01-27T11:33:30;56345.88;;;-140.56;67.75
10482;BME280;5288;42.334;23.876;2024-01-27T11:36:01;56353.78;;;-140.56;67.47
10482;BME280;5288;42.334;23.876;2024-01-27T11:38:30;56373.56;;;-140.56;67.68
10482;BME280;5288;42.334;23.876;2024-01-27T11:40:59;56365.66;;;-140.56;68.35
10482;BME280;5288;42.334;23.876;2024-01-27T11:43:28;56330.06;;;-140.56;69.00
10482;BME280;5288;42.334;23.876;2024-01-27T11:45:56;56361.69;;;-140.56;69.95
10482;BME280;5288;42.334;23.876;2024-01-27T11:48:22;56383.44;;;-140.56;70.36
10482;BME280;5288;42.334;23.876;2024-01-27T11:51:03;56377.50;;;-140.56;71.22
10482;BME280;5288;42.334;23.876;2024-01-27T11:53:31;56375.53;;;-140.56;72.14
10482;BME280;5288;42.334;23.876;2024-01-27T11:55:59;56379.47;;;-140.56;72.18
10482;BME280;5288;42.334;23.876;2024-01-27T11:58:28;56373.56;;;-140.56;72.11
10482;BME280;5288;42.334;23.876;2024-01-27T12:00:56;56397.25;;;-140.56;72.73
10482;BME280;5288;42.334;23.876;2024-01-27T12:03:24;56369.59;;;-140.56;73.25
10482;BME280;5288;42.334;23.876;2024-01-27T12:05:51;56361.69;;;-140.56;73.86
10482;BME280;5288;42.334;23.876;2024-01-27T12:08:18;56403.19;;;-140.56;74.85
10482;BME280;5288;42.334;23.876;2024-01-27T12:10:46;56395.28;;;-140.56;75.12
10482;BME280;5288;42.334;23.876;2024-01-27T12:13:13;56424.94;;;-140.56;75.37
10482;BME280;5288;42.334;23.876;2024-01-27T12:15:42;56375.53;;;-140.56;75.42
10482;BME280;5288;42.334;23.876;2024-01-27T12:18:10;56422.97;;;-140.56;75.59
10482;BME280;5288;42.334;23.876;2024-01-27T12:20:38;56363.66;;;-140.56;75.54
10482;BME280;5288;42.334;23.876;2024-01-27T12:23:06;56383.44;;;-140.56;75.32
10482;BME280;5288;42.334;23.876;2024-01-27T12:25:33;56369.59;;;-140.56;75.18
10482;BME280;5288;42.334;23.876;2024-01-27T12:28:02;56363.66;;;-140.56;75.31
10482;BME280;5288;42.334;23.876;2024-01-27T12:30:31;56387.38;;;-140.56;74.54
10482;BME280;5288;42.334;23.876;2024-01-27T12:33:01;56377.50;;;-140.56;75.04
10482;BME280;5288;42.334;23.876;2024-01-27T12:35:29;56399.25;;;-140.56;74.16
10482;BME280;5288;42.334;23.876;2024-01-27T12:37:59;56355.75;;;-140.56;74.20
10482;BME280;5288;42.334;23.876;2024-01-27T12:40:26;56385.41;;;-140.56;74.73
10482;BME280;5288;42.334;23.876;2024-01-27T12:42:53;56401.22;;;-140.56;75.42
10482;BME280;5288;42.334;23.876;2024-01-27T12:45:21;56373.56;;;-140.56;75.47